createdAt,value
2022-09-12T00:01:41.777Z,100.00
2022-09-12T00:04:16.887Z,100.00
2022-09-12T00:07:03.791Z,100.00
2022-09-12T00:09:36.906Z,100.00
2022-09-12T00:12:23.793Z,100.00
2022-09-12T00:14:56.863Z,100.00
2022-09-12T00:17:44.806Z,100.00
2022-09-12T00:20:17.923Z,100.00
2022-09-12T00:23:04.851Z,100.00
2022-09-12T00:25:37.885Z,100.00
2022-09-12T00:28:25.802Z,100.00
2022-09-12T00:30:58.881Z,100.00
2022-09-12T00:33:46.783Z,100.00
2022-09-12T00:36:25.876Z,100.00
2022-09-12T00:39:12.807Z,100.00
2022-09-12T00:41:46.977Z,100.00
2022-09-12T00:44:33.821Z,100.00
2022-09-12T00:47:23.865Z,100.00
2022-09-12T00:50:16.822Z,100.00
2022-09-12T00:53:04.819Z,100.00
2022-09-12T00:56:03.813Z,100.00
2022-09-12T00:58:57.814Z,100.00
2022-09-12T01:01:32.782Z,100.00
2022-09-12T01:04:19.809Z,100.00
2022-09-12T01:06:53.869Z,100.00
2022-09-12T01:09:41.835Z,100.00
2022-09-12T01:12:14.889Z,100.00
2022-09-12T01:15:08.830Z,100.00
2022-09-12T01:18:07.824Z,100.00
2022-09-12T01:21:07.827Z,100.00
2022-09-12T01:24:01.850Z,100.00
2022-09-12T01:27:19.826Z,100.00
2022-09-12T01:30:05.049Z,100.00
2022-09-12T01:33:12.822Z,100.00
2022-09-12T01:36:34.861Z,100.00
2022-09-12T01:39:53.895Z,100.00
2022-09-12T01:43:09.832Z,100.00
2022-09-12T01:45:57.962Z,100.00
2022-09-12T01:48:44.873Z,100.00
2022-09-12T01:51:42.833Z,100.00
2022-09-12T01:54:22.141Z,100.00
2022-09-12T01:57:13.854Z,100.00
2022-09-12T01:59:51.390Z,100.00
2022-09-12T02:03:09.838Z,100.00
2022-09-12T02:06:24.848Z,100.00
2022-09-12T02:09:01.913Z,100.00
2022-09-12T02:11:50.839Z,100.00
2022-09-12T02:14:39.848Z,100.00
2022-09-12T02:17:36.851Z,100.00
2022-09-12T02:20:48.470Z,100.00
2022-09-12T02:23:37.845Z,100.00
2022-09-12T02:26:48.875Z,100.00
2022-09-12T02:29:42.849Z,100.00
2022-09-12T02:32:41.884Z,100.00
2022-09-12T02:35:38.863Z,100.00
2022-09-12T02:38:42.889Z,100.00
2022-09-12T02:41:15.924Z,100.00
2022-09-12T02:44:02.854Z,100.00
2022-09-12T02:46:54.885Z,100.00
2022-09-12T02:49:48.867Z,100.00
2022-09-12T02:52:42.865Z,100.00
2022-09-12T02:55:30.871Z,100.00
2022-09-12T02:58:10.895Z,100.00
2022-09-12T03:01:09.936Z,100.00
2022-09-12T03:04:05.854Z,100.00
2022-09-12T03:06:47.938Z,100.00
2022-09-12T03:09:53.874Z,100.00
2022-09-12T03:12:48.880Z,100.00
2022-09-12T03:15:57.862Z,100.00
2022-09-12T03:19:17.881Z,100.00
2022-09-12T03:22:34.871Z,100.00
2022-09-12T03:25:30.904Z,100.00
2022-09-12T03:28:09.372Z,100.00
2022-09-12T03:31:00.939Z,100.00
2022-09-12T03:33:40.913Z,100.00
2022-09-12T03:36:39.882Z,100.00
2022-09-12T03:39:27.916Z,100.00
2022-09-12T03:42:08.894Z,100.00
2022-09-12T03:44:55.908Z,100.00
2022-09-12T03:47:28.947Z,100.00
2022-09-12T03:50:15.901Z,100.00
2022-09-12T03:52:48.959Z,100.00
2022-09-12T03:55:35.904Z,100.00
2022-09-12T03:58:08.986Z,100.00
2022-09-12T04:00:55.926Z,100.00
2022-09-12T04:03:29.022Z,100.00
2022-09-12T04:06:17.905Z,100.00
2022-09-12T04:08:59.986Z,100.00
2022-09-12T04:11:46.910Z,100.00
2022-09-12T04:14:20.018Z,100.00
2022-09-12T04:17:06.916Z,100.00
2022-09-12T04:19:39.988Z,100.00
2022-09-12T04:22:27.902Z,100.00
2022-09-12T04:25:00.997Z,100.00
2022-09-12T04:27:47.905Z,100.00
2022-09-12T04:30:20.995Z,100.00
2022-09-12T04:33:08.288Z,100.00
2022-09-12T04:35:42.930Z,100.00
2022-09-12T04:38:29.926Z,100.00
2022-09-12T04:41:02.983Z,100.00
2022-09-12T04:43:52.932Z,100.00
2022-09-12T04:46:25.992Z,100.00
2022-09-12T04:49:12.928Z,100.00
2022-09-12T04:51:48.042Z,100.00
2022-09-12T04:54:34.898Z,100.00
2022-09-12T04:57:14.920Z,100.00
2022-09-12T05:00:06.476Z,100.00
2022-09-12T05:02:47.933Z,100.00
2022-09-12T05:05:41.932Z,100.00
2022-09-12T05:08:28.950Z,100.00
2022-09-12T05:11:02.000Z,100.00
2022-09-12T05:13:48.928Z,100.00
2022-09-12T05:16:24.274Z,100.00
2022-09-12T05:19:10.940Z,100.00
2022-09-12T05:21:44.053Z,100.00
2022-09-12T05:24:30.935Z,100.00
2022-09-12T05:27:04.843Z,100.00
2022-09-12T05:29:51.957Z,100.00
2022-09-12T05:32:31.940Z,100.00
2022-09-12T05:35:25.949Z,100.00
2022-09-12T05:38:13.929Z,100.00
2022-09-12T05:40:46.995Z,100.00
2022-09-12T05:43:33.950Z,100.00
2022-09-12T05:46:15.048Z,100.00
2022-09-12T05:49:02.958Z,100.00
2022-09-12T05:51:41.518Z,100.00
2022-09-12T05:54:31.377Z,100.00
2022-09-12T05:57:11.970Z,100.00
2022-09-12T05:59:58.947Z,100.00
2022-09-12T06:02:39.010Z,100.00
2022-09-12T06:05:32.949Z,100.00
2022-09-12T06:08:19.961Z,100.00
2022-09-12T06:10:53.124Z,100.00
2022-09-12T06:13:40.985Z,100.00
2022-09-12T06:16:26.013Z,100.00
2022-09-12T06:19:18.970Z,100.00
2022-09-12T06:21:53.475Z,100.00
2022-09-12T06:24:32.966Z,100.00
2022-09-12T06:27:12.963Z,100.00
2022-09-12T06:29:46.033Z,100.00
2022-09-12T06:32:32.969Z,100.00
2022-09-12T06:35:06.049Z,100.00
2022-09-12T06:37:52.967Z,100.00
2022-09-12T06:40:33.994Z,100.00
2022-09-12T06:43:27.977Z,100.00
2022-09-12T06:46:16.037Z,100.00
2022-09-12T06:48:55.962Z,100.00
2022-09-12T06:51:42.969Z,100.00
2022-09-12T06:54:26.979Z,100.00
2022-09-12T06:57:20.970Z,100.00
2022-09-12T07:00:07.998Z,98.77
2022-09-12T07:02:41.183Z,100.00
2022-09-12T07:05:27.971Z,99.64
2022-09-12T07:08:01.058Z,97.86
2022-09-12T07:10:47.985Z,100.00
2022-09-12T07:13:21.345Z,98.46
2022-09-12T07:16:21.098Z,98.64
2022-09-12T07:19:10.003Z,97.10
2022-09-12T07:21:46.082Z,98.86
2022-09-12T07:24:32.995Z,97.21
2022-09-12T07:27:06.074Z,97.15
2022-09-12T07:29:53.984Z,97.30
2022-09-12T07:32:34.003Z,97.93
2022-09-12T07:35:21.008Z,98.98
2022-09-12T07:38:01.014Z,98.22
2022-09-12T07:40:54.997Z,96.43
2022-09-12T07:43:42.086Z,97.08
2022-09-12T07:46:23.019Z,96.12
2022-09-12T07:49:10.011Z,92.34
2022-09-12T07:51:43.476Z,93.63
2022-09-12T07:54:30.018Z,93.18
2022-09-12T07:57:03.069Z,93.53
2022-09-12T07:59:53.051Z,91.97
2022-09-12T08:02:27.131Z,93.30
2022-09-12T08:05:14.028Z,92.07
2022-09-12T08:07:57.650Z,91.64
2022-09-12T08:10:52.032Z,91.13
2022-09-12T08:13:49.569Z,90.80
2022-09-12T08:16:46.006Z,89.12
2022-09-12T08:19:40.027Z,88.48
2022-09-12T08:22:34.012Z,87.89
2022-09-12T08:25:21.027Z,87.91
2022-09-12T08:27:54.343Z,86.74
2022-09-12T08:30:41.078Z,85.39
2022-09-12T08:33:22.020Z,88.22
2022-09-12T08:36:20.029Z,86.41
2022-09-12T08:39:04.035Z,87.73
2022-09-12T08:42:00.094Z,87.70
2022-09-12T08:44:49.047Z,87.45
2022-09-12T08:47:35.050Z,85.21
2022-09-12T08:50:32.050Z,84.86
2022-09-12T08:53:27.044Z,83.95
2022-09-12T08:56:11.021Z,85.60
2022-09-12T08:58:58.055Z,85.56
2022-09-12T09:01:49.143Z,86.21
2022-09-12T09:05:05.046Z,84.92
2022-09-12T09:08:10.042Z,82.98
2022-09-12T09:10:53.195Z,83.33
2022-09-12T09:14:13.056Z,82.97
2022-09-12T09:16:56.063Z,82.60
2022-09-12T09:19:50.646Z,83.00
2022-09-12T09:22:50.061Z,85.25
2022-09-12T09:26:00.058Z,85.37
2022-09-12T09:28:49.085Z,84.74
2022-09-12T09:31:51.073Z,81.63
2022-09-12T09:34:45.045Z,83.27
2022-09-12T09:37:54.539Z,82.16
2022-09-12T09:41:06.064Z,83.83
2022-09-12T09:44:00.106Z,82.84
2022-09-12T09:46:54.063Z,83.71
2022-09-12T09:49:48.084Z,83.51
2022-09-12T09:52:38.061Z,83.19
2022-09-12T09:55:19.086Z,83.02
2022-09-12T09:58:13.056Z,82.22
2022-09-12T10:01:06.124Z,81.89
2022-09-12T10:03:47.144Z,82.12
2022-09-12T10:06:46.058Z,81.59
2022-09-12T10:09:41.082Z,79.71
2022-09-12T10:12:39.065Z,82.43
2022-09-12T10:15:36.145Z,83.47
2022-09-12T10:18:48.078Z,84.21
2022-09-12T10:21:41.043Z,82.50
2022-09-12T10:24:28.182Z,79.34
2022-09-12T10:27:29.100Z,78.74
2022-09-12T10:30:14.452Z,80.33
2022-09-12T10:33:05.077Z,78.85
2022-09-12T10:35:51.922Z,81.23
2022-09-12T10:38:46.085Z,77.85
2022-09-12T10:41:21.850Z,79.28
2022-09-12T10:44:21.095Z,78.28
2022-09-12T10:46:55.786Z,79.40
2022-09-12T10:49:47.098Z,79.01
2022-09-12T10:52:24.964Z,79.35
2022-09-12T10:55:12.107Z,79.59
2022-09-12T10:58:14.439Z,76.94
2022-09-12T11:01:09.135Z,80.27
2022-09-12T11:04:10.100Z,79.96
2022-09-12T11:06:58.180Z,81.27
2022-09-12T11:09:42.094Z,78.10
2022-09-12T11:12:42.217Z,78.50
2022-09-12T11:16:01.191Z,77.97
2022-09-12T11:19:24.101Z,81.34
2022-09-12T11:22:25.281Z,80.87
2022-09-12T11:25:39.106Z,80.34
2022-09-12T11:28:31.224Z,79.80
2022-09-12T11:31:51.100Z,78.56
2022-09-12T11:34:40.199Z,76.97
2022-09-12T11:37:52.113Z,77.23
2022-09-12T11:41:07.122Z,75.54
2022-09-12T11:44:29.117Z,77.71
2022-09-12T11:47:27.154Z,76.29
2022-09-12T11:50:28.126Z,77.36
2022-09-12T11:53:07.074Z,78.92
2022-09-12T11:56:05.115Z,79.06
2022-09-12T11:58:38.221Z,79.18
2022-09-12T12:01:36.271Z,75.30
2022-09-12T12:04:18.219Z,76.74
2022-09-12T12:07:23.137Z,78.50
2022-09-12T12:10:05.125Z,74.87
2022-09-12T12:12:59.150Z,75.83
2022-09-12T12:15:53.228Z,73.70
2022-09-12T12:18:50.154Z,75.82
2022-09-12T12:21:49.141Z,77.47
2022-09-12T12:24:34.289Z,77.14
2022-09-12T12:27:52.141Z,76.54
2022-09-12T12:31:08.193Z,74.03
2022-09-12T12:34:02.168Z,75.84
2022-09-12T12:36:50.150Z,76.08
2022-09-12T12:39:45.201Z,75.91
2022-09-12T12:42:48.156Z,76.29
2022-09-12T12:45:35.170Z,76.44
2022-09-12T12:48:16.212Z,79.69
2022-09-12T12:51:42.183Z,78.10
2022-09-12T12:54:44.189Z,77.94
2022-09-12T12:58:13.176Z,78.05
2022-09-12T13:01:28.270Z,78.20
2022-09-12T13:04:12.395Z,77.56
2022-09-12T13:07:29.162Z,77.94
2022-09-12T13:10:04.226Z,78.60
2022-09-12T13:12:54.163Z,77.31
2022-09-12T13:15:49.202Z,75.60
2022-09-12T13:18:55.183Z,72.41
2022-09-12T13:21:42.178Z,77.25
2022-09-12T13:24:30.184Z,76.18
2022-09-12T13:27:38.175Z,77.57
2022-09-12T13:30:25.200Z,76.13
2022-09-12T13:32:59.287Z,77.39
2022-09-12T13:35:58.166Z,78.26
2022-09-12T13:38:52.255Z,76.91
2022-09-12T13:41:57.160Z,76.85
2022-09-12T13:44:40.180Z,76.44
2022-09-12T13:48:02.276Z,78.23
2022-09-12T13:51:04.199Z,77.27
2022-09-12T13:54:03.188Z,77.92
2022-09-12T13:57:03.184Z,76.03
2022-09-12T13:59:56.199Z,78.08
2022-09-12T14:02:31.474Z,77.28
2022-09-12T14:05:26.193Z,75.96
2022-09-12T14:08:04.612Z,77.80
2022-09-12T14:10:54.201Z,77.27
2022-09-12T14:13:39.185Z,79.20
2022-09-12T14:16:35.209Z,79.74
2022-09-12T14:19:26.211Z,76.45
2022-09-12T14:22:02.185Z,79.55
2022-09-12T14:24:49.205Z,78.99
2022-09-12T14:27:28.784Z,79.27
2022-09-12T14:30:28.219Z,77.96
2022-09-12T14:33:23.207Z,78.47
2022-09-12T14:36:47.215Z,77.02
2022-09-12T14:39:46.245Z,76.61
2022-09-12T14:42:27.159Z,77.38
2022-09-12T14:45:25.214Z,76.05
2022-09-12T14:48:06.225Z,78.88
2022-09-12T14:51:04.239Z,77.67
2022-09-12T14:53:55.206Z,78.94
2022-09-12T14:56:43.349Z,79.42
2022-09-12T14:59:36.306Z,79.19
2022-09-12T15:02:27.386Z,79.40
2022-09-12T15:05:14.240Z,77.37
2022-09-12T15:08:09.293Z,77.26
2022-09-12T15:10:56.229Z,78.42
2022-09-12T15:13:38.230Z,80.35
2022-09-12T15:16:32.247Z,79.36
2022-09-12T15:19:26.247Z,81.07
2022-09-12T15:22:20.244Z,78.72
2022-09-12T15:25:07.246Z,80.32
2022-09-12T15:27:43.400Z,78.88
2022-09-12T15:30:30.249Z,80.02
2022-09-12T15:33:03.297Z,80.44
2022-09-12T15:35:50.257Z,79.29
2022-09-12T15:38:26.509Z,80.53
2022-09-12T15:41:18.263Z,79.96
2022-09-12T15:43:52.556Z,81.59
2022-09-12T15:46:39.319Z,80.28
2022-09-12T15:49:20.245Z,79.92
2022-09-12T15:52:14.242Z,78.91
2022-09-12T15:55:08.259Z,83.33
2022-09-12T15:57:55.255Z,82.35
2022-09-12T16:00:28.353Z,84.14
2022-09-12T16:03:27.246Z,86.32
2022-09-12T16:06:14.261Z,84.99
2022-09-12T16:09:08.250Z,83.86
2022-09-12T16:11:55.251Z,84.85
2022-09-12T16:14:28.329Z,85.81
2022-09-12T16:17:22.250Z,83.96
2022-09-12T16:20:09.270Z,83.95
2022-09-12T16:22:42.353Z,86.32
2022-09-12T16:25:29.274Z,85.20
2022-09-12T16:28:03.517Z,84.25
2022-09-12T16:30:50.319Z,84.16
2022-09-12T16:33:23.387Z,85.80
2022-09-12T16:36:12.278Z,86.02
2022-09-12T16:38:50.362Z,85.57
2022-09-12T16:41:37.263Z,84.13
2022-09-12T16:44:10.370Z,83.82
2022-09-12T16:46:57.291Z,83.86
2022-09-12T16:49:30.511Z,84.63
2022-09-12T16:52:18.297Z,85.27
2022-09-12T16:54:51.355Z,84.79
2022-09-12T16:57:39.283Z,86.22
2022-09-12T17:00:15.112Z,86.46
2022-09-12T17:03:02.355Z,86.46
2022-09-12T17:05:42.308Z,86.86
2022-09-12T17:08:29.288Z,86.81
2022-09-12T17:11:18.312Z,87.33
2022-09-12T17:14:14.219Z,88.56
2022-09-12T17:17:08.285Z,88.16
2022-09-12T17:19:55.394Z,87.68
2022-09-12T17:22:35.281Z,87.73
2022-09-12T17:25:22.304Z,87.38
2022-09-12T17:27:55.365Z,87.79
2022-09-12T17:30:42.320Z,88.10
2022-09-12T17:33:16.382Z,88.58
2022-09-12T17:36:12.297Z,89.13
2022-09-12T17:38:53.305Z,89.18
2022-09-12T17:41:48.308Z,90.08
2022-09-12T17:44:36.323Z,90.37
2022-09-12T17:47:18.305Z,90.57
2022-09-12T17:50:30.934Z,90.97
2022-09-12T17:53:19.329Z,90.72
2022-09-12T17:55:54.343Z,91.34
2022-09-12T17:58:42.310Z,91.51
2022-09-12T18:01:39.171Z,91.90
2022-09-12T18:04:26.327Z,92.33
2022-09-12T18:07:07.330Z,92.28
2022-09-12T18:10:01.335Z,92.52
2022-09-12T18:12:48.325Z,92.40
2022-09-12T18:15:21.430Z,92.67
2022-09-12T18:18:08.358Z,92.83
2022-09-12T18:20:41.383Z,92.99
2022-09-12T18:23:28.334Z,93.47
2022-09-12T18:26:05.459Z,93.65
2022-09-12T18:28:52.306Z,93.78
2022-09-12T18:31:28.909Z,93.76
2022-09-12T18:34:19.329Z,93.89
2022-09-12T18:36:54.979Z,94.11
2022-09-12T18:39:41.370Z,94.33
2022-09-12T18:42:14.414Z,94.57
2022-09-12T18:45:01.373Z,94.90
2022-09-12T18:47:34.428Z,94.43
2022-09-12T18:50:21.339Z,94.69
2022-09-12T18:52:59.008Z,94.96
2022-09-12T18:55:46.370Z,95.64
2022-09-12T18:58:26.337Z,95.52
2022-09-12T19:01:23.408Z,95.85
2022-09-12T19:04:11.352Z,96.15
2022-09-12T19:06:50.605Z,96.39
2022-09-12T19:09:37.365Z,96.94
2022-09-12T19:12:10.452Z,97.14
2022-09-12T19:14:57.367Z,97.19
2022-09-12T19:17:37.340Z,96.99
2022-09-12T19:20:31.341Z,97.08
2022-09-12T19:23:18.364Z,97.26
2022-09-12T19:25:51.461Z,97.33
2022-09-12T19:28:38.377Z,97.64
2022-09-12T19:31:13.526Z,97.70
2022-09-12T19:34:00.343Z,97.96
2022-09-12T19:36:44.963Z,97.79
2022-09-12T19:39:32.352Z,97.99
2022-09-12T19:42:05.476Z,98.00
2022-09-12T19:44:52.349Z,98.11
2022-09-12T19:47:25.490Z,98.55
2022-09-12T19:50:13.356Z,98.45
2022-09-12T19:52:53.363Z,98.58
2022-09-12T19:55:49.399Z,98.74
2022-09-12T19:58:44.349Z,99.17
2022-09-12T20:01:41.501Z,99.01
2022-09-12T20:04:35.362Z,99.11
2022-09-12T20:07:22.377Z,98.94
2022-09-12T20:09:55.433Z,99.14
2022-09-12T20:12:42.377Z,99.75
2022-09-12T20:15:16.458Z,99.33
2022-09-12T20:18:10.376Z,99.77
2022-09-12T20:21:04.387Z,99.82
2022-09-12T20:23:52.369Z,99.68
2022-09-12T20:26:28.587Z,99.77
2022-09-12T20:29:15.387Z,99.76
2022-09-12T20:31:49.453Z,99.73
2022-09-12T20:34:36.397Z,99.93
2022-09-12T20:37:09.446Z,99.77
2022-09-12T20:39:56.465Z,100.00
2022-09-12T20:42:36.379Z,99.68
2022-09-12T20:45:30.378Z,99.93
2022-09-12T20:48:24.390Z,100.00
2022-09-12T20:51:18.422Z,100.00
2022-09-12T20:54:14.394Z,100.00
2022-09-12T20:57:08.382Z,100.00
2022-09-12T20:59:55.410Z,100.00
2022-09-12T21:02:29.912Z,100.00
2022-09-12T21:05:16.386Z,100.00
2022-09-12T21:07:56.388Z,100.00
2022-09-12T21:10:50.387Z,100.00
2022-09-12T21:13:44.416Z,100.00
2022-09-12T21:16:38.398Z,100.00
2022-09-12T21:19:32.419Z,100.00
2022-09-12T21:22:26.384Z,100.00
2022-09-12T21:25:13.419Z,100.00
2022-09-12T21:27:53.411Z,100.00
2022-09-12T21:30:40.389Z,100.00
2022-09-12T21:33:13.478Z,100.00
2022-09-12T21:36:00.391Z,100.00
2022-09-12T21:38:33.500Z,100.00
2022-09-12T21:41:22.405Z,100.00
2022-09-12T21:44:02.430Z,100.00
2022-09-12T21:46:56.403Z,100.00
2022-09-12T21:49:43.411Z,100.00
2022-09-12T21:52:18.544Z,100.00
2022-09-12T21:55:05.423Z,100.00
2022-09-12T21:57:42.506Z,100.00
2022-09-12T22:00:29.438Z,100.00
2022-09-12T22:03:04.910Z,100.00
2022-09-12T22:05:51.425Z,100.00
2022-09-12T22:08:24.482Z,100.00
2022-09-12T22:11:15.444Z,100.00
2022-09-12T22:13:48.598Z,100.00
2022-09-12T22:16:35.428Z,100.00
2022-09-12T22:19:08.568Z,100.00
2022-09-12T22:22:13.416Z,100.00
2022-09-12T22:24:46.524Z,100.00
2022-09-12T22:27:33.434Z,100.00
2022-09-12T22:30:13.443Z,100.00
2022-09-12T22:33:00.447Z,100.00
2022-09-12T22:35:40.430Z,100.00
2022-09-12T22:38:34.457Z,100.00
2022-09-12T22:41:28.491Z,100.00
2022-09-12T22:44:17.442Z,100.00
2022-09-12T22:46:52.050Z,99.99
2022-09-12T22:49:38.462Z,99.93
2022-09-12T22:52:11.554Z,100.00
2022-09-12T22:54:58.448Z,100.00
2022-09-12T22:57:31.523Z,100.00
2022-09-12T23:00:18.442Z,100.00
2022-09-12T23:02:51.524Z,100.00
2022-09-12T23:05:38.440Z,100.00
2022-09-12T23:08:18.426Z,100.00
2022-09-12T23:11:17.455Z,100.00
2022-09-12T23:14:04.456Z,100.00
2022-09-12T23:16:37.699Z,100.00
2022-09-12T23:19:24.451Z,100.00
2022-09-12T23:21:57.528Z,100.00
2022-09-12T23:24:44.462Z,100.00
2022-09-12T23:27:24.674Z,100.00
2022-09-12T23:30:12.479Z,100.00
2022-09-12T23:32:45.545Z,100.00
2022-09-12T23:35:32.475Z,100.00
2022-09-12T23:38:06.412Z,100.00
2022-09-12T23:40:53.449Z,100.00
2022-09-12T23:43:26.549Z,100.00
2022-09-12T23:46:14.497Z,100.00
2022-09-12T23:48:48.757Z,100.00
2022-09-12T23:51:35.459Z,100.00
2022-09-12T23:54:08.738Z,100.00
2022-09-12T23:56:55.484Z,100.00
2022-09-12T23:59:31.020Z,100.00
